Time;durP1;ratioP1;P1;durP2;ratioP2;P2;SDS_P1;SDS_P2;PMS_P1;PMS_P2;Temp;Humidity;BMP_temperature;BMP_pressure;BME280_temperature;BME280_humidity;BME280_pressure;Samples;Min_cycle;Max_cycle;Signal;HPM_P1;HPM_P2
2023/07/24 00:00:59;;;;;;;20.23;6.38;;;;;;;;;;4922978;28;20380;-67
2023/07/24 00:03:25;;;;;;;19.52;6.20;;;;;;;;;;4926651;28;20093;-67
2023/07/24 00:05:51;;;;;;;21.45;6.32;;;;;;;;;;4925321;28;20031;-67
2023/07/24 00:08:17;;;;;;;20.48;6.22;;;;;;;;;;4922598;28;20038;-67
2023/07/24 00:10:43;;;;;;;21.73;6.20;;;;;;;;;;4925583;28;20031;-67
2023/07/24 00:13:09;;;;;;;16.48;5.55;;;;;;;;;;4907936;28;20113;-68
2023/07/24 00:15:35;;;;;;;20.65;6.25;;;;;;;;;;4926387;28;20093;-67
2023/07/24 00:18:01;;;;;;;23.02;6.10;;;;;;;;;;4921358;28;20489;-68
2023/07/24 00:20:28;;;;;;;21.23;5.68;;;;;;;;;;4925631;28;20081;-68
2023/07/24 00:22:54;;;;;;;19.40;5.78;;;;;;;;;;4924079;28;20043;-68
2023/07/24 00:25:20;;;;;;;18.77;6.15;;;;;;;;;;4922427;28;20038;-68
2023/07/24 00:27:46;;;;;;;19.10;5.47;;;;;;;;;;4910387;29;20027;-68
2023/07/24 00:30:12;;;;;;;23.20;6.10;;;;;;;;;;4909402;28;20090;-68
2023/07/24 00:32:38;;;;;;;21.90;5.97;;;;;;;;;;4930766;28;20035;-68
2023/07/24 00:35:05;;;;;;;21.38;5.85;;;;;;;;;;4908423;28;20116;-67
2023/07/24 00:37:31;;;;;;;25.00;6.30;;;;;;;;;;4931153;28;20035;-68
2023/07/24 00:39:57;;;;;;;24.20;6.57;;;;;;;;;;4925163;28;20023;-68
2023/07/24 00:42:23;;;;;;;25.20;6.60;;;;;;;;;;4912627;28;20302;-68
2023/07/24 00:44:49;;;;;;;21.05;6.25;;;;;;;;;;4927603;28;20497;-68
2023/07/24 00:47:16;;;;;;;23.42;6.00;;;;;;;;;;4911298;28;22212;-66
2023/07/24 00:49:42;;;;;;;22.15;6.45;;;;;;;;;;4927814;28;20031;-66
2023/07/24 00:52:08;;;;;;;20.80;6.10;;;;;;;;;;4924407;28;20445;-66
2023/07/24 00:54:35;;;;;;;21.25;5.95;;;;;;;;;;4911491;28;20035;-66
2023/07/24 00:57:01;;;;;;;24.23;5.72;;;;;;;;;;4925346;28;20035;-66
2023/07/24 00:59:28;;;;;;;20.77;6.10;;;;;;;;;;4931883;28;20376;-66
2023/07/24 01:01:54;;;;;;;22.80;5.90;;;;;;;;;;4912363;28;20444;-66
2023/07/24 01:04:20;;;;;;;22.60;6.10;;;;;;;;;;4925693;28;20499;-66
2023/07/24 01:06:46;;;;;;;20.70;6.18;;;;;;;;;;4928865;28;20028;-66
2023/07/24 01:09:12;;;;;;;22.00;5.68;;;;;;;;;;4927714;28;20050;-66
2023/07/24 01:11:44;;;;;;;18.50;5.43;;;;;;;;;;4929022;28;20081;-66
2023/07/24 01:14:14;;;;;;;21.10;4.60;;;;;;;;;;4928308;28;20654;-68
2023/07/24 01:16:45;;;;;;;20.75;5.45;;;;;;;;;;4928375;28;20007;-66
2023/07/24 01:19:29;;;;;;;22.40;5.60;;;;;;;;;;4907611;28;20037;-66
2023/07/24 01:22:05;;;;;;;21.20;5.50;;;;;;;;;;4931262;28;20038;-66
2023/07/24 01:24:40;;;;;;;21.92;5.78;;;;;;;;;;4932149;28;20134;-66
2023/07/24 01:27:08;;;;;;;24.48;5.85;;;;;;;;;;4927024;28;20394;-66
2023/07/24 01:29:34;;;;;;;23.60;5.43;;;;;;;;;;4931988;28;20122;-66
2023/07/24 01:32:00;;;;;;;24.63;5.63;;;;;;;;;;4925111;28;20382;-66
2023/07/24 01:34:26;;;;;;;22.02;5.80;;;;;;;;;;4930430;28;20342;-66
2023/07/24 01:36:52;;;;;;;22.88;5.78;;;;;;;;;;4927703;28;20049;-66
2023/07/24 01:39:20;;;;;;;17.52;5.07;;;;;;;;;;4907141;28;20035;-66
2023/07/24 01:41:47;;;;;;;20.60;6.13;;;;;;;;;;4928387;28;20391;-67
2023/07/24 01:44:13;;;;;;;26.00;5.82;;;;;;;;;;4926739;28;20458;-65
2023/07/24 01:46:39;;;;;;;23.35;6.38;;;;;;;;;;4929974;28;20023;-66
2023/07/24 01:49:05;;;;;;;22.65;6.65;;;;;;;;;;4922758;28;20244;-66
2023/07/24 01:51:31;;;;;;;21.92;6.05;;;;;;;;;;4928723;28;20134;-69
2023/07/24 01:53:58;;;;;;;23.15;5.78;;;;;;;;;;4908058;28;20090;-66
2023/07/24 01:56:24;;;;;;;23.83;5.97;;;;;;;;;;4928261;28;20557;-66
2023/07/24 01:58:50;;;;;;;20.83;5.18;;;;;;;;;;4911174;28;20028;-65
2023/07/24 02:01:16;;;;;;;23.90;5.47;;;;;;;;;;4925515;28;20189;-66
2023/07/24 02:03:42;;;;;;;19.00;5.75;;;;;;;;;;4913644;28;20081;-66
2023/07/24 02:06:09;;;;;;;21.25;6.35;;;;;;;;;;4912881;28;20602;-65
2023/07/24 02:08:35;;;;;;;18.20;5.60;;;;;;;;;;4916240;29;20039;-65
2023/07/24 02:11:01;;;;;;;23.38;6.28;;;;;;;;;;4930662;28;20059;-65
2023/07/24 02:13:27;;;;;;;21.30;5.93;;;;;;;;;;4912026;28;20350;-65
2023/07/24 02:15:53;;;;;;;21.10;6.07;;;;;;;;;;4934337;28;20260;-66
2023/07/24 02:18:19;;;;;;;22.00;5.93;;;;;;;;;;4927449;28;20042;-65
2023/07/24 02:20:50;;;;;;;28.75;6.20;;;;;;;;;;4932048;28;20130;-65
2023/07/24 02:23:16;;;;;;;19.20;6.30;;;;;;;;;;4932249;28;20039;-65
2023/07/24 02:25:42;;;;;;;23.95;6.15;;;;;;;;;;4931953;28;20545;-65
2023/07/24 02:28:09;;;;;;;23.77;5.95;;;;;;;;;;4931328;28;20780;-65
2023/07/24 02:30:38;;;;;;;20.60;6.32;;;;;;;;;;4934576;28;20126;-65
2023/07/24 02:33:04;;;;;;;19.75;5.72;;;;;;;;;;4914340;28;20043;-65
2023/07/24 02:35:30;;;;;;;21.75;6.72;;;;;;;;;;4931641;28;20031;-65
2023/07/24 02:37:56;;;;;;;24.25;6.43;;;;;;;;;;4929162;28;20039;-65
2023/07/24 02:40:23;;;;;;;18.88;5.57;;;;;;;;;;4917645;28;20384;-65
2023/07/24 02:42:49;;;;;;;20.58;6.20;;;;;;;;;;4913955;28;20521;-65
2023/07/24 02:45:15;;;;;;;21.65;6.20;;;;;;;;;;4929087;28;20039;-65
2023/07/24 02:47:42;;;;;;;20.67;6.28;;;;;;;;;;4932347;28;20271;-65
2023/07/24 02:50:08;;;;;;;22.05;5.78;;;;;;;;;;4926836;28;20038;-65
2023/07/24 02:52:34;;;;;;;20.77;6.15;;;;;;;;;;4928448;28;20481;-65
2023/07/24 02:55:01;;;;;;;21.50;6.00;;;;;;;;;;4930551;28;20139;-65
2023/07/24 02:57:27;;;;;;;22.73;6.60;;;;;;;;;;4932150;28;20035;-65
2023/07/24 02:59:53;;;;;;;24.70;6.22;;;;;;;;;;4938130;28;20109;-65
2023/07/24 03:02:19;;;;;;;26.67;6.15;;;;;;;;;;4930426;28;20642;-68
2023/07/24 03:04:45;;;;;;;20.92;6.45;;;;;;;;;;4911167;28;20031;-65
2023/07/24 03:07:11;;;;;;;23.73;5.72;;;;;;;;;;4910314;28;20280;-67
2023/07/24 03:09:37;;;;;;;23.23;6.32;;;;;;;;;;4926459;28;20388;-67
2023/07/24 03:12:03;;;;;;;19.52;6.15;;;;;;;;;;4924447;28;20433;-66
2023/07/24 03:14:30;;;;;;;21.58;6.32;;;;;;;;;;4936887;28;20473;-66
2023/07/24 03:16:56;;;;;;;18.17;6.00;;;;;;;;;;4932984;28;20407;-66
2023/07/24 03:19:22;;;;;;;18.67;5.78;;;;;;;;;;4913152;28;20039;-66
2023/07/24 03:21:49;;;;;;;23.63;6.65;;;;;;;;;;4914792;28;20050;-66
2023/07/24 03:24:15;;;;;;;21.25;6.18;;;;;;;;;;4908168;28;20038;-66
2023/07/24 03:26:41;;;;;;;22.38;6.63;;;;;;;;;;4912012;28;20612;-66
2023/07/24 03:29:07;;;;;;;20.80;5.97;;;;;;;;;;4917660;28;20489;-66
2023/07/24 03:31:33;;;;;;;20.05;5.68;;;;;;;;;;4910718;28;20079;-66
2023/07/24 03:33:59;;;;;;;21.20;6.15;;;;;;;;;;4929920;28;20062;-66
2023/07/24 03:36:25;;;;;;;24.65;6.47;;;;;;;;;;4915681;28;20471;-66
2023/07/24 03:38:52;;;;;;;18.48;6.13;;;;;;;;;;4914016;28;20066;-66
2023/07/24 03:41:18;;;;;;;21.42;6.80;;;;;;;;;;4908562;28;20599;-66
2023/07/24 03:43:44;;;;;;;18.80;6.50;;;;;;;;;;4931973;28;20031;-66
2023/07/24 03:46:10;;;;;;;20.35;6.22;;;;;;;;;;4910459;28;20119;-66
2023/07/24 03:48:36;;;;;;;23.10;7.18;;;;;;;;;;4930982;28;20046;-66
2023/07/24 03:51:03;;;;;;;21.65;6.18;;;;;;;;;;4906926;28;20803;-66
2023/07/24 03:53:29;;;;;;;20.90;6.18;;;;;;;;;;4916999;29;20082;-66
2023/07/24 03:55:55;;;;;;;24.13;6.53;;;;;;;;;;4894270;28;20043;-66
2023/07/24 03:58:21;;;;;;;20.63;5.78;;;;;;;;;;4897436;29;20400;-66
2023/07/24 04:00:48;;;;;;;19.88;6.07;;;;;;;;;;4911823;29;20040;-66
2023/07/24 04:03:14;;;;;;;19.77;5.95;;;;;;;;;;4906666;28;20277;-66
2023/07/24 04:05:40;;;;;;;23.20;6.13;;;;;;;;;;4914336;29;20034;-66
2023/07/24 04:08:06;;;;;;;27.95;6.50;;;;;;;;;;4910246;28;20142;-66
2023/07/24 04:10:32;;;;;;;19.65;6.30;;;;;;;;;;4914357;29;22933;-66
2023/07/24 04:12:58;;;;;;;25.27;6.50;;;;;;;;;;4891345;29;20251;-66
2023/07/24 04:15:24;;;;;;;24.73;6.60;;;;;;;;;;4913592;29;20127;-66
2023/07/24 04:17:50;;;;;;;19.15;5.57;;;;;;;;;;4911034;28;20633;-66
2023/07/24 04:20:17;;;;;;;21.15;6.40;;;;;;;;;;4906980;28;20416;-66
2023/07/24 04:22:43;;;;;;;22.00;6.70;;;;;;;;;;4910734;28;20434;-66
2023/07/24 04:25:09;;;;;;;22.00;5.95;;;;;;;;;;4912293;29;20063;-66
2023/07/24 04:27:35;;;;;;;21.23;6.35;;;;;;;;;;4913051;28;20490;-66
2023/07/24 04:30:01;;;;;;;22.55;6.55;;;;;;;;;;4892610;28;20912;-66
2023/07/24 04:32:27;;;;;;;24.95;6.60;;;;;;;;;;4916232;28;20035;-66
2023/07/24 04:34:54;;;;;;;21.58;6.53;;;;;;;;;;4911896;29;20035;-66
2023/07/24 04:37:20;;;;;;;25.48;6.22;;;;;;;;;;4911883;28;20123;-66
2023/07/24 04:39:46;;;;;;;21.27;6.43;;;;;;;;;;4914427;29;20164;-66
2023/07/24 04:42:12;;;;;;;19.45;5.50;;;;;;;;;;4892120;29;20499;-66
2023/07/24 04:44:38;;;;;;;18.95;5.55;;;;;;;;;;4913181;28;20413;-66
2023/07/24 04:47:05;;;;;;;15.00;4.78;;;;;;;;;;4911123;28;20063;-66
2023/07/24 04:49:32;;;;;;;16.88;5.68;;;;;;;;;;4916931;29;20091;-66
2023/07/24 04:51:59;;;;;;;19.15;5.80;;;;;;;;;;4908141;28;20163;-67
2023/07/24 04:54:25;;;;;;;21.52;6.70;;;;;;;;;;4912665;29;20055;-66
2023/07/24 04:56:51;;;;;;;20.90;5.93;;;;;;;;;;4912182;28;20024;-66
2023/07/24 04:59:17;;;;;;;17.25;5.70;;;;;;;;;;4906886;29;20027;-66
2023/07/24 05:01:43;;;;;;;22.25;5.97;;;;;;;;;;4911083;28;20972;-66
2023/07/24 05:04:09;;;;;;;19.48;6.20;;;;;;;;;;4907158;29;20374;-66
2023/07/24 05:06:38;;;;;;;20.15;6.45;;;;;;;;;;4910871;28;20131;-66
2023/07/24 05:09:04;;;;;;;17.20;5.60;;;;;;;;;;4908136;29;20359;-66
2023/07/24 05:11:30;;;;;;;24.80;6.13;;;;;;;;;;4893026;28;20059;-66
2023/07/24 05:13:56;;;;;;;22.08;5.88;;;;;;;;;;4906642;29;20287;-67
2023/07/24 05:16:22;;;;;;;22.20;6.95;;;;;;;;;;4894378;29;20194;-67
2023/07/24 05:18:49;;;;;;;23.10;6.53;;;;;;;;;;4915639;29;20454;-66
2023/07/24 05:21:15;;;;;;;18.63;5.93;;;;;;;;;;4897185;29;20603;-66
2023/07/24 05:23:41;;;;;;;22.08;6.60;;;;;;;;;;4912907;28;20545;-66
2023/07/24 05:26:07;;;;;;;19.80;6.72;;;;;;;;;;4910796;29;20038;-66
2023/07/24 05:28:33;;;;;;;17.58;6.32;;;;;;;;;;4897452;29;20027;-66
2023/07/24 05:31:03;;;;;;;17.45;6.32;;;;;;;;;;4909278;29;20029;-66
2023/07/24 05:33:29;;;;;;;20.52;5.93;;;;;;;;;;4915241;28;20039;-66
2023/07/24 05:36:02;;;;;;;18.55;6.00;;;;;;;;;;4897892;29;20038;-66
2023/07/24 05:38:29;;;;;;;18.48;6.35;;;;;;;;;;4919158;28;20795;-66
2023/07/24 05:40:58;;;;;;;22.80;6.20;;;;;;;;;;4918530;29;20071;-66
2023/07/24 05:43:25;;;;;;;18.75;6.10;;;;;;;;;;4910258;29;20078;-66
2023/07/24 05:45:51;;;;;;;20.70;7.25;;;;;;;;;;4903534;29;20024;-67
2023/07/24 05:48:18;;;;;;;20.58;6.82;;;;;;;;;;4913013;28;20027;-66
2023/07/24 05:50:44;;;;;;;21.52;7.38;;;;;;;;;;4919028;28;20348;-66
2023/07/24 05:53:10;;;;;;;19.13;6.72;;;;;;;;;;4927504;28;20044;-66
2023/07/24 05:55:36;;;;;;;19.75;6.65;;;;;;;;;;4919226;28;20524;-66
2023/07/24 05:58:03;;;;;;;23.58;6.57;;;;;;;;;;4911353;28;20366;-66
2023/07/24 06:00:29;;;;;;;20.50;6.18;;;;;;;;;;4934693;28;20129;-66
2023/07/24 06:02:55;;;;;;;19.95;5.75;;;;;;;;;;4931972;28;20066;-66
2023/07/24 06:05:21;;;;;;;21.73;6.43;;;;;;;;;;4922936;28;20057;-66
2023/07/24 06:07:48;;;;;;;18.30;5.63;;;;;;;;;;4917731;28;20591;-66
2023/07/24 06:10:14;;;;;;;20.50;5.93;;;;;;;;;;4932138;28;20031;-67
2023/07/24 06:12:40;;;;;;;23.38;6.57;;;;;;;;;;4913857;28;20136;-66
2023/07/24 06:15:07;;;;;;;20.85;5.55;;;;;;;;;;4926376;28;20072;-66
2023/07/24 06:17:33;;;;;;;15.98;4.82;;;;;;;;;;4935906;28;20027;-67
2023/07/24 06:19:59;;;;;;;16.50;5.57;;;;;;;;;;4931081;28;20054;-66
2023/07/24 06:22:25;;;;;;;19.50;5.45;;;;;;;;;;4931947;28;20405;-66
2023/07/24 06:24:51;;;;;;;19.17;6.03;;;;;;;;;;4931181;28;20263;-66
2023/07/24 06:27:18;;;;;;;17.08;5.63;;;;;;;;;;4911122;28;20324;-66
2023/07/24 06:29:44;;;;;;;24.40;6.63;;;;;;;;;;4919596;28;20027;-67
2023/07/24 06:32:10;;;;;;;20.58;5.68;;;;;;;;;;4934529;28;20031;-66
2023/07/24 06:34:36;;;;;;;20.48;6.18;;;;;;;;;;4937576;28;20035;-66
2023/07/24 06:37:02;;;;;;;18.42;5.93;;;;;;;;;;4932476;28;20035;-67
2023/07/24 06:39:28;;;;;;;26.17;7.22;;;;;;;;;;4935947;28;20038;-66
2023/07/24 06:41:55;;;;;;;25.88;6.50;;;;;;;;;;4937369;28;20093;-66
2023/07/24 06:44:22;;;;;;;28.48;6.82;;;;;;;;;;4933658;28;20580;-67
2023/07/24 06:46:48;;;;;;;22.85;6.05;;;;;;;;;;4933458;28;20551;-68
2023/07/24 06:49:14;;;;;;;26.63;6.78;;;;;;;;;;4920170;28;20042;-66
2023/07/24 06:51:40;;;;;;;20.92;5.90;;;;;;;;;;4937262;28;20058;-66
2023/07/24 06:54:06;;;;;;;20.08;5.88;;;;;;;;;;4921192;28;20043;-66
2023/07/24 06:56:33;;;;;;;19.05;6.03;;;;;;;;;;4938008;28;20027;-66
2023/07/24 06:58:59;;;;;;;19.00;5.47;;;;;;;;;;4932021;28;20107;-66
2023/07/24 07:01:25;;;;;;;14.80;4.93;;;;;;;;;;4913651;28;20035;-66
2023/07/24 07:03:52;;;;;;;16.23;5.35;;;;;;;;;;4919204;28;20440;-66
2023/07/24 07:06:18;;;;;;;14.63;5.05;;;;;;;;;;4932649;28;20019;-67
2023/07/24 07:08:44;;;;;;;13.68;4.45;;;;;;;;;;4933223;28;20580;-67
2023/07/24 07:11:10;;;;;;;13.35;4.63;;;;;;;;;;4913225;28;20043;-66
2023/07/24 07:13:36;;;;;;;14.93;5.00;;;;;;;;;;4938370;28;20061;-67
2023/07/24 07:16:02;;;;;;;15.18;4.32;;;;;;;;;;4928450;28;20042;-66
2023/07/24 07:18:28;;;;;;;19.38;4.88;;;;;;;;;;4918176;28;20138;-67
2023/07/24 07:20:55;;;;;;;15.18;4.55;;;;;;;;;;4932964;28;20042;-66
2023/07/24 07:23:22;;;;;;;23.25;5.55;;;;;;;;;;4934232;28;20186;-66
2023/07/24 07:25:49;;;;;;;16.33;5.40;;;;;;;;;;4932270;28;20118;-66
2023/07/24 07:28:16;;;;;;;15.35;4.88;;;;;;;;;;4937555;28;20019;-67
2023/07/24 07:30:42;;;;;;;16.85;4.63;;;;;;;;;;4940166;28;20031;-67
2023/07/24 07:33:09;;;;;;;15.70;5.30;;;;;;;;;;4929996;28;20031;-67
2023/07/24 07:35:36;;;;;;;19.05;5.70;;;;;;;;;;4931391;28;20061;-67
2023/07/24 07:38:02;;;;;;;19.70;5.38;;;;;;;;;;4926175;28;20037;-67
2023/07/24 07:40:28;;;;;;;19.15;5.70;;;;;;;;;;4909431;28;20031;-67
2023/07/24 07:42:55;;;;;;;14.85;5.05;;;;;;;;;;4913658;28;20039;-66
2023/07/24 07:45:22;;;;;;;15.80;5.20;;;;;;;;;;4926615;28;20023;-67
2023/07/24 07:47:48;;;;;;;19.20;5.32;;;;;;;;;;4913204;28;20035;-66
2023/07/24 07:50:14;;;;;;;16.88;4.72;;;;;;;;;;4923018;28;20035;-67
2023/07/24 07:52:40;;;;;;;15.10;5.22;;;;;;;;;;4924122;28;20633;-67
2023/07/24 07:55:07;;;;;;;17.17;5.55;;;;;;;;;;4925830;28;20456;-67
2023/07/24 07:57:36;;;;;;;17.92;4.88;;;;;;;;;;4929803;28;20473;-67
2023/07/24 08:00:03;;;;;;;18.63;5.43;;;;;;;;;;4925890;28;20094;-67
2023/07/24 08:02:29;;;;;;;19.63;5.63;;;;;;;;;;4924436;28;20046;-67
2023/07/24 08:04:55;;;;;;;17.27;5.07;;;;;;;;;;4927198;28;20119;-67
2023/07/24 08:07:21;;;;;;;19.00;5.63;;;;;;;;;;4924020;28;20098;-66
2023/07/24 08:09:47;;;;;;;19.40;5.40;;;;;;;;;;4926949;28;20146;-67
2023/07/24 08:12:13;;;;;;;20.02;5.20;;;;;;;;;;4921819;28;20455;-67
2023/07/24 08:14:39;;;;;;;20.65;5.85;;;;;;;;;;4926567;28;20027;-66
2023/07/24 08:17:06;;;;;;;23.60;5.90;;;;;;;;;;4908207;28;20038;-66
2023/07/24 08:19:32;;;;;;;15.80;5.10;;;;;;;;;;4916094;28;20121;-66
2023/07/24 08:21:58;;;;;;;21.15;5.13;;;;;;;;;;4921330;28;20031;-67
2023/07/24 08:24:24;;;;;;;19.40;5.63;;;;;;;;;;4915188;28;20121;-66
2023/07/24 08:26:50;;;;;;;19.90;5.95;;;;;;;;;;4909835;28;20027;-67
2023/07/24 08:29:17;;;;;;;20.85;5.25;;;;;;;;;;4927276;28;22062;-67
2023/07/24 08:31:43;;;;;;;20.25;5.05;;;;;;;;;;4917963;28;20035;-67
2023/07/24 08:34:09;;;;;;;19.40;5.80;;;;;;;;;;4904962;28;20141;-67
2023/07/24 08:36:37;;;;;;;19.00;5.20;;;;;;;;;;4897838;29;20084;-67
2023/07/24 08:39:03;;;;;;;18.98;5.53;;;;;;;;;;4923806;28;20031;-67
2023/07/24 08:41:32;;;;;;;23.40;6.22;;;;;;;;;;4924522;28;20046;-67
2023/07/24 08:43:59;;;;;;;20.35;5.80;;;;;;;;;;4907270;28;20082;-67
2023/07/24 08:46:25;;;;;;;22.05;6.03;;;;;;;;;;4925676;28;20033;-67
2023/07/24 08:48:52;;;;;;;19.40;5.90;;;;;;;;;;4925719;28;20035;-67
2023/07/24 08:51:20;;;;;;;28.33;6.22;;;;;;;;;;4920897;28;20050;-67
2023/07/24 08:53:46;;;;;;;23.90;6.43;;;;;;;;;;4907177;28;20289;-67
2023/07/24 08:56:14;;;;;;;24.52;6.38;;;;;;;;;;4921470;28;20039;-66
2023/07/24 08:58:40;;;;;;;20.45;5.82;;;;;;;;;;4918649;28;20028;-67
2023/07/24 09:01:06;;;;;;;21.23;6.35;;;;;;;;;;4903580;28;20042;-66
2023/07/24 09:03:33;;;;;;;19.48;5.95;;;;;;;;;;4925444;28;20063;-66
2023/07/24 09:06:03;;;;;;;20.70;5.97;;;;;;;;;;4903335;28;20134;-67
2023/07/24 09:08:33;;;;;;;29.52;7.07;;;;;;;;;;4926769;28;20501;-66
2023/07/24 09:11:00;;;;;;;24.90;6.28;;;;;;;;;;4921171;28;20671;-67
2023/07/24 09:13:26;;;;;;;24.10;7.07;;;;;;;;;;4925582;28;20392;-67
2023/07/24 09:15:53;;;;;;;21.25;6.50;;;;;;;;;;4894453;28;20042;-67
2023/07/24 09:18:19;;;;;;;26.95;6.80;;;;;;;;;;4921634;28;20039;-66
2023/07/24 09:20:45;;;;;;;22.85;6.25;;;;;;;;;;4923857;28;20086;-67
2023/07/24 09:23:13;;;;;;;22.77;6.38;;;;;;;;;;4916215;28;20040;-67
2023/07/24 09:25:40;;;;;;;23.35;6.57;;;;;;;;;;4923354;28;20214;-67
2023/07/24 09:28:16;;;;;;;24.10;6.93;;;;;;;;;;4920688;28;20568;-67
2023/07/24 09:30:43;;;;;;;24.45;6.85;;;;;;;;;;4905937;28;20363;-67
2023/07/24 09:33:10;;;;;;;22.80;7.53;;;;;;;;;;4911781;28;20036;-67
2023/07/24 09:35:36;;;;;;;23.10;6.18;;;;;;;;;;4921168;28;20028;-67
2023/07/24 09:38:09;;;;;;;20.70;7.10;;;;;;;;;;4902556;28;20031;-67
2023/07/24 09:40:47;;;;;;;19.88;6.47;;;;;;;;;;4926093;28;20042;-67
2023/07/24 09:43:20;;;;;;;24.77;6.75;;;;;;;;;;4917390;28;20290;-68
2023/07/24 09:45:47;;;;;;;21.30;6.38;;;;;;;;;;4924689;28;20470;-67
2023/07/24 09:48:14;;;;;;;25.40;6.07;;;;;;;;;;4922762;28;20085;-67
2023/07/24 09:50:46;;;;;;;24.58;6.85;;;;;;;;;;4926317;28;20103;-68
2023/07/24 09:53:33;;;;;;;21.50;6.78;;;;;;;;;;4907221;29;20047;-67
2023/07/24 09:56:01;;;;;;;21.88;6.95;;;;;;;;;;4908096;29;20043;-67
2023/07/24 09:58:27;;;;;;;22.38;7.03;;;;;;;;;;4905139;29;20035;-68
2023/07/24 10:00:54;;;;;;;21.75;5.85;;;;;;;;;;4893708;28;20027;-68
2023/07/24 10:03:22;;;;;;;23.30;6.43;;;;;;;;;;4906110;29;20044;-69
2023/07/24 10:05:48;;;;;;;21.73;6.70;;;;;;;;;;4893773;29;20046;-67
2023/07/24 10:08:18;;;;;;;22.17;6.85;;;;;;;;;;4907959;29;20131;-68
2023/07/24 10:10:44;;;;;;;25.90;6.65;;;;;;;;;;4909097;29;20336;-68
2023/07/24 10:13:13;;;;;;;25.35;6.35;;;;;;;;;;4888278;29;20048;-67
2023/07/24 10:15:39;;;;;;;21.77;6.80;;;;;;;;;;4908788;29;20028;-67
2023/07/24 10:18:07;;;;;;;22.40;6.13;;;;;;;;;;4909618;29;20158;-67
2023/07/24 10:20:38;;;;;;;22.65;6.47;;;;;;;;;;4900639;29;20146;-67
2023/07/24 10:23:05;;;;;;;24.08;6.68;;;;;;;;;;4913492;28;20035;-68
2023/07/24 10:25:32;;;;;;;27.10;6.38;;;;;;;;;;4912832;29;20032;-68
2023/07/24 10:28:12;;;;;;;19.60;6.20;;;;;;;;;;4914612;28;20037;-68
2023/07/24 10:30:39;;;;;;;21.38;6.13;;;;;;;;;;4918147;29;20023;-67
2023/07/24 10:33:05;;;;;;;20.05;5.85;;;;;;;;;;4913122;29;20042;-66
2023/07/24 10:35:38;;;;;;;25.55;7.28;;;;;;;;;;4913937;29;20024;-68
2023/07/24 10:38:04;;;;;;;21.58;6.25;;;;;;;;;;4888908;29;20032;-66
2023/07/24 10:40:30;;;;;;;24.63;6.32;;;;;;;;;;4887972;29;20076;-67
2023/07/24 10:43:07;;;;;;;21.52;6.93;;;;;;;;;;4907038;28;20039;-68
2023/07/24 10:45:40;;;;;;;22.05;6.40;;;;;;;;;;4909034;29;20245;-68
2023/07/24 10:48:07;;;;;;;25.05;6.50;;;;;;;;;;4905145;28;20031;-67
2023/07/24 10:50:44;;;;;;;23.65;6.70;;;;;;;;;;4908627;28;20382;-67
2023/07/24 10:53:11;;;;;;;20.35;5.65;;;;;;;;;;4920276;28;20521;-67
2023/07/24 10:55:37;;;;;;;22.40;5.90;;;;;;;;;;4908392;28;20066;-67
2023/07/24 10:58:04;;;;;;;19.80;5.75;;;;;;;;;;4924693;28;20313;-67
2023/07/24 11:00:30;;;;;;;19.50;6.18;;;;;;;;;;4927393;28;20098;-68
2023/07/24 11:02:56;;;;;;;20.13;5.90;;;;;;;;;;4926607;28;20067;-67
2023/07/24 11:05:23;;;;;;;24.35;6.30;;;;;;;;;;4928824;28;20023;-70
2023/07/24 11:07:49;;;;;;;21.45;6.07;;;;;;;;;;4927307;28;20142;-68
2023/07/24 11:10:19;;;;;;;22.20;5.90;;;;;;;;;;4925444;28;20329;-67
2023/07/24 11:12:45;;;;;;;29.05;6.03;;;;;;;;;;4910335;28;20031;-67
2023/07/24 11:15:12;;;;;;;27.30;7.22;;;;;;;;;;4923413;28;20492;-67
2023/07/24 11:17:40;;;;;;;20.60;6.18;;;;;;;;;;4911218;29;20050;-67
2023/07/24 11:20:10;;;;;;;22.77;6.07;;;;;;;;;;4924367;28;20141;-68
2023/07/24 11:22:36;;;;;;;22.38;6.60;;;;;;;;;;4926747;28;20101;-67
2023/07/24 11:25:04;;;;;;;22.48;6.45;;;;;;;;;;4923889;28;20129;-68
2023/07/24 11:27:30;;;;;;;19.92;6.13;;;;;;;;;;4926309;28;20075;-67
2023/07/24 11:29:57;;;;;;;25.80;6.82;;;;;;;;;;4926056;28;20039;-67
2023/07/24 11:32:23;;;;;;;24.38;6.85;;;;;;;;;;4925567;28;20070;-68
2023/07/24 11:34:50;;;;;;;20.42;7.10;;;;;;;;;;4909792;28;20446;-67
2023/07/24 11:37:18;;;;;;;20.90;7.10;;;;;;;;;;4924067;28;20772;-68
2023/07/24 11:39:44;;;;;;;24.48;7.50;;;;;;;;;;4927131;28;20042;-68
2023/07/24 11:42:10;;;;;;;22.15;6.93;;;;;;;;;;4923824;28;20044;-68
2023/07/24 11:44:36;;;;;;;19.73;6.03;;;;;;;;;;4929951;28;20284;-68
2023/07/24 11:47:06;;;;;;;26.45;6.35;;;;;;;;;;4908307;28;20031;-69
2023/07/24 11:49:33;;;;;;;26.70;6.32;;;;;;;;;;4930224;28;20546;-70
2023/07/24 11:52:04;;;;;;;27.52;6.05;;;;;;;;;;4912885;28;20049;-70
2023/07/24 11:54:30;;;;;;;27.05;7.22;;;;;;;;;;4934804;28;20027;-69
2023/07/24 11:56:57;;;;;;;21.80;5.90;;;;;;;;;;4916047;28;20074;-67
2023/07/24 11:59:24;;;;;;;20.48;6.82;;;;;;;;;;4934491;28;20038;-70
2023/07/24 12:01:51;;;;;;;26.67;6.80;;;;;;;;;;4934919;28;20037;-70
2023/07/24 12:04:17;;;;;;;26.83;6.85;;;;;;;;;;4927444;28;20035;-68
2023/07/24 12:06:44;;;;;;;23.15;6.22;;;;;;;;;;4932712;28;20023;-69
2023/07/24 12:09:11;;;;;;;17.80;5.53;;;;;;;;;;4932073;28;20031;-69
2023/07/24 12:11:44;;;;;;;22.08;6.45;;;;;;;;;;4929693;28;20035;-69
2023/07/24 12:14:10;;;;;;;18.58;5.50;;;;;;;;;;4931220;28;20031;-70
2023/07/24 12:16:37;;;;;;;24.35;6.28;;;;;;;;;;4931558;28;20401;-68
2023/07/24 12:19:03;;;;;;;21.45;6.72;;;;;;;;;;4927652;28;20788;-70
2023/07/24 12:21:29;;;;;;;19.75;5.85;;;;;;;;;;4932914;28;20026;-69
2023/07/24 12:23:56;;;;;;;21.88;6.00;;;;;;;;;;4932779;28;20368;-69
2023/07/24 12:26:25;;;;;;;28.13;7.63;;;;;;;;;;4916090;28;20057;-69
2023/07/24 12:28:51;;;;;;;22.88;5.93;;;;;;;;;;4940448;28;20099;-70
2023/07/24 12:31:17;;;;;;;27.05;6.55;;;;;;;;;;4914634;28;20142;-68
2023/07/24 12:33:43;;;;;;;20.70;5.88;;;;;;;;;;4929058;28;20038;-70
2023/07/24 12:36:09;;;;;;;20.77;6.35;;;;;;;;;;4926772;28;20035;-70
2023/07/24 12:38:35;;;;;;;20.63;5.93;;;;;;;;;;4936241;28;20113;-72
2023/07/24 12:41:01;;;;;;;24.17;6.82;;;;;;;;;;4927141;28;20521;-70
2023/07/24 12:43:27;;;;;;;20.65;6.22;;;;;;;;;;4934297;28;20088;-70
2023/07/24 12:45:54;;;;;;;20.55;5.88;;;;;;;;;;4930148;28;20522;-70
2023/07/24 12:48:20;;;;;;;19.40;6.20;;;;;;;;;;4924378;28;20441;-70
2023/07/24 12:50:47;;;;;;;21.88;5.80;;;;;;;;;;4927976;28;20037;-71
2023/07/24 12:53:13;;;;;;;20.77;5.95;;;;;;;;;;4924446;28;20587;-71
2023/07/24 12:55:39;;;;;;;22.60;6.30;;;;;;;;;;4932060;28;20141;-71
2023/07/24 12:58:05;;;;;;;20.10;6.13;;;;;;;;;;4928316;28;20126;-71
2023/07/24 13:00:31;;;;;;;21.30;5.93;;;;;;;;;;4932815;28;20042;-71
2023/07/24 13:02:57;;;;;;;22.83;5.65;;;;;;;;;;4927457;28;20035;-70
2023/07/24 13:05:23;;;;;;;17.75;5.57;;;;;;;;;;4916363;28;20076;-70
2023/07/24 13:07:50;;;;;;;19.88;5.65;;;;;;;;;;4912555;28;20169;-70
2023/07/24 13:10:16;;;;;;;21.73;6.30;;;;;;;;;;4914705;28;20522;-71
2023/07/24 13:12:44;;;;;;;20.17;6.10;;;;;;;;;;4933126;28;20102;-71
2023/07/24 13:15:10;;;;;;;17.60;6.18;;;;;;;;;;4926385;28;20027;-69
2023/07/24 13:17:37;;;;;;;22.05;6.03;;;;;;;;;;4931379;28;20047;-69
2023/07/24 13:20:03;;;;;;;21.63;6.53;;;;;;;;;;4927854;28;20606;-69
2023/07/24 13:22:29;;;;;;;21.45;6.55;;;;;;;;;;4931728;28;20058;-69
2023/07/24 13:24:56;;;;;;;20.33;6.20;;;;;;;;;;4913637;28;20066;-70
2023/07/24 13:27:22;;;;;;;18.70;6.15;;;;;;;;;;4916555;28;20030;-69
2023/07/24 13:29:48;;;;;;;19.25;6.40;;;;;;;;;;4928973;28;20038;-69
2023/07/24 13:32:15;;;;;;;25.75;6.40;;;;;;;;;;4929002;28;20071;-70
2023/07/24 13:34:42;;;;;;;20.23;6.20;;;;;;;;;;4928077;28;20557;-69
2023/07/24 13:37:08;;;;;;;23.40;7.00;;;;;;;;;;4926210;28;20034;-69
2023/07/24 13:39:35;;;;;;;22.75;6.30;;;;;;;;;;4932114;28;20552;-68
2023/07/24 13:42:01;;;;;;;22.50;5.65;;;;;;;;;;4927876;28;20031;-69
2023/07/24 13:44:27;;;;;;;20.70;5.80;;;;;;;;;;4931346;28;20039;-70
2023/07/24 13:46:55;;;;;;;21.48;5.90;;;;;;;;;;4930461;28;20027;-68
2023/07/24 13:49:21;;;;;;;23.35;5.97;;;;;;;;;;4924510;28;20172;-69
2023/07/24 13:51:47;;;;;;;20.98;6.20;;;;;;;;;;4917775;28;20408;-68
2023/07/24 13:54:14;;;;;;;22.67;6.28;;;;;;;;;;4926470;28;20039;-69
2023/07/24 13:56:40;;;;;;;22.45;6.40;;;;;;;;;;4920983;28;20225;-69
2023/07/24 13:59:06;;;;;;;20.15;6.00;;;;;;;;;;4914964;28;20043;-69
2023/07/24 14:01:32;;;;;;;19.58;6.35;;;;;;;;;;4932420;28;20373;-69
2023/07/24 14:04:00;;;;;;;18.83;5.90;;;;;;;;;;4930077;28;20047;-70
2023/07/24 14:06:26;;;;;;;20.50;6.13;;;;;;;;;;4933288;28;20039;-69
2023/07/24 14:08:52;;;;;;;23.35;6.65;;;;;;;;;;4935473;28;20035;-69
2023/07/24 14:11:18;;;;;;;24.27;7.28;;;;;;;;;;4929310;28;20450;-69
2023/07/24 14:13:46;;;;;;;19.85;6.35;;;;;;;;;;4933427;28;21118;-69
2023/07/24 14:16:12;;;;;;;21.13;6.07;;;;;;;;;;4928719;28;20071;-70
2023/07/24 14:18:38;;;;;;;24.13;6.70;;;;;;;;;;4935138;28;20502;-70
2023/07/24 14:21:04;;;;;;;20.65;6.47;;;;;;;;;;4932926;28;20459;-69
2023/07/24 14:23:30;;;;;;;24.95;6.80;;;;;;;;;;4933510;28;20092;-69
2023/07/24 14:25:57;;;;;;;21.17;6.10;;;;;;;;;;4933352;28;20106;-69
2023/07/24 14:28:23;;;;;;;20.20;6.28;;;;;;;;;;4932886;28;20041;-69